sensor_id;sensor_type;location;lat;lon;timestamp;P1;durP1;ratioP1;P2;durP2;ratioP2
57395;SDS011;43222;52.912;6.940;2022-07-30T00:00:07;10.65;;;7.75;;
57395;SDS011;43222;52.912;6.940;2022-07-30T00:02:34;13.55;;;8.00;;
57395;SDS011;43222;52.912;6.940;2022-07-30T00:05:00;11.55;;;8.13;;
57395;SDS011;43222;52.912;6.940;2022-07-30T00:07:26;10.75;;;8.18;;
57395;SDS011;43222;52.912;6.940;2022-07-30T00:09:52;12.82;;;8.45;;
57395;SDS011;43222;52.912;6.940;2022-07-30T00:12:19;10.73;;;7.70;;
57395;SDS011;43222;52.912;6.940;2022-07-30T00:14:45;10.38;;;8.27;;
57395;SDS011;43222;52.912;6.940;2022-07-30T00:17:11;13.40;;;8.70;;
57395;SDS011;43222;52.912;6.940;2022-07-30T00:19:37;10.73;;;8.15;;
57395;SDS011;43222;52.912;6.940;2022-07-30T00:22:03;14.65;;;7.90;;
57395;SDS011;43222;52.912;6.940;2022-07-30T00:24:29;12.10;;;7.70;;
57395;SDS011;43222;52.912;6.940;2022-07-30T00:26:55;13.60;;;9.13;;
57395;SDS011;43222;52.912;6.940;2022-07-30T00:29:21;15.10;;;8.13;;
57395;SDS011;43222;52.912;6.940;2022-07-30T00:31:47;11.57;;;7.90;;
57395;SDS011;43222;52.912;6.940;2022-07-30T00:34:13;11.85;;;7.82;;
57395;SDS011;43222;52.912;6.940;2022-07-30T00:36:39;13.00;;;7.90;;
57395;SDS011;43222;52.912;6.940;2022-07-30T00:39:05;13.10;;;8.25;;
57395;SDS011;43222;52.912;6.940;2022-07-30T00:41:31;11.63;;;7.72;;
57395;SDS011;43222;52.912;6.940;2022-07-30T00:43:58;11.05;;;7.97;;
57395;SDS011;43222;52.912;6.940;2022-07-30T00:46:24;13.98;;;8.43;;
57395;SDS011;43222;52.912;6.940;2022-07-30T00:48:50;19.17;;;9.85;;
57395;SDS011;43222;52.912;6.940;2022-07-30T00:51:19;16.67;;;9.90;;
57395;SDS011;43222;52.912;6.940;2022-07-30T00:53:45;16.52;;;9.85;;
57395;SDS011;43222;52.912;6.940;2022-07-30T00:56:11;16.35;;;9.50;;
57395;SDS011;43222;52.912;6.940;2022-07-30T00:58:37;14.90;;;9.93;;
57395;SDS011;43222;52.912;6.940;2022-07-30T01:01:03;20.02;;;9.85;;
57395;SDS011;43222;52.912;6.940;2022-07-30T01:03:29;16.42;;;10.52;;
57395;SDS011;43222;52.912;6.940;2022-07-30T01:05:55;15.32;;;9.60;;
57395;SDS011;43222;52.912;6.940;2022-07-30T01:08:21;12.75;;;9.40;;
57395;SDS011;43222;52.912;6.940;2022-07-30T01:10:47;15.15;;;10.35;;
57395;SDS011;43222;52.912;6.940;2022-07-30T01:13:13;10.93;;;8.20;;
57395;SDS011;43222;52.912;6.940;2022-07-30T01:15:39;11.57;;;8.88;;
57395;SDS011;43222;52.912;6.940;2022-07-30T01:18:05;12.77;;;9.27;;
57395;SDS011;43222;52.912;6.940;2022-07-30T01:20:34;9.52;;;7.03;;
57395;SDS011;43222;52.912;6.940;2022-07-30T01:28:00;10.13;;;6.07;;
57395;SDS011;43222;52.912;6.940;2022-07-30T01:32:53;8.90;;;6.88;;
57395;SDS011;43222;52.912;6.940;2022-07-30T01:35:21;10.27;;;7.90;;
57395;SDS011;43222;52.912;6.940;2022-07-30T01:37:47;9.88;;;8.88;;
57395;SDS011;43222;52.912;6.940;2022-07-30T01:40:14;8.95;;;7.57;;
57395;SDS011;43222;52.912;6.940;2022-07-30T01:42:41;9.20;;;7.25;;
57395;SDS011;43222;52.912;6.940;2022-07-30T01:45:07;9.93;;;6.53;;
57395;SDS011;43222;52.912;6.940;2022-07-30T01:47:34;8.05;;;5.32;;
57395;SDS011;43222;52.912;6.940;2022-07-30T01:50:00;6.97;;;4.95;;
57395;SDS011;43222;52.912;6.940;2022-07-30T01:52:27;6.80;;;5.53;;
57395;SDS011;43222;52.912;6.940;2022-07-30T01:54:55;6.63;;;5.18;;
57395;SDS011;43222;52.912;6.940;2022-07-30T01:57:23;6.80;;;4.82;;
57395;SDS011;43222;52.912;6.940;2022-07-30T01:59:51;7.13;;;5.93;;
57395;SDS011;43222;52.912;6.940;2022-07-30T02:02:19;9.40;;;6.72;;
57395;SDS011;43222;52.912;6.940;2022-07-30T02:04:45;9.45;;;7.05;;
57395;SDS011;43222;52.912;6.940;2022-07-30T02:07:13;9.88;;;8.43;;
57395;SDS011;43222;52.912;6.940;2022-07-30T02:09:42;8.68;;;6.85;;
57395;SDS011;43222;52.912;6.940;2022-07-30T02:12:13;8.00;;;6.78;;
57395;SDS011;43222;52.912;6.940;2022-07-30T02:17:25;7.30;;;5.90;;
57395;SDS011;43222;52.912;6.940;2022-07-30T02:19:53;6.82;;;5.68;;
57395;SDS011;43222;52.912;6.940;2022-07-30T02:22:21;8.80;;;6.10;;
57395;SDS011;43222;52.912;6.940;2022-07-30T02:24:48;7.65;;;5.70;;
57395;SDS011;43222;52.912;6.940;2022-07-30T02:27:17;7.45;;;6.10;;
57395;SDS011;43222;52.912;6.940;2022-07-30T02:29:44;7.82;;;6.03;;
57395;SDS011;43222;52.912;6.940;2022-07-30T02:32:12;7.55;;;5.68;;
57395;SDS011;43222;52.912;6.940;2022-07-30T02:34:39;7.13;;;6.30;;
57395;SDS011;43222;52.912;6.940;2022-07-30T02:37:05;11.13;;;6.13;;
57395;SDS011;43222;52.912;6.940;2022-07-30T02:39:32;7.95;;;6.40;;
57395;SDS011;43222;52.912;6.940;2022-07-30T02:41:58;8.00;;;6.13;;
57395;SDS011;43222;52.912;6.940;2022-07-30T02:44:25;7.30;;;6.60;;
57395;SDS011;43222;52.912;6.940;2022-07-30T02:46:53;8.85;;;7.18;;
57395;SDS011;43222;52.912;6.940;2022-07-30T02:49:20;9.65;;;8.20;;
57395;SDS011;43222;52.912;6.940;2022-07-30T02:51:47;10.10;;;6.80;;
57395;SDS011;43222;52.912;6.940;2022-07-30T02:54:14;10.82;;;8.57;;
57395;SDS011;43222;52.912;6.940;2022-07-30T02:56:42;12.07;;;6.70;;
57395;SDS011;43222;52.912;6.940;2022-07-30T02:59:09;9.35;;;6.28;;
57395;SDS011;43222;52.912;6.940;2022-07-30T03:01:36;8.88;;;6.20;;
57395;SDS011;43222;52.912;6.940;2022-07-30T03:04:02;7.75;;;5.90;;
57395;SDS011;43222;52.912;6.940;2022-07-30T03:06:29;7.75;;;6.20;;
57395;SDS011;43222;52.912;6.940;2022-07-30T03:08:56;5.78;;;3.60;;
57395;SDS011;43222;52.912;6.940;2022-07-30T03:11:22;5.30;;;4.22;;
57395;SDS011;43222;52.912;6.940;2022-07-30T03:13:49;27.98;;;7.45;;
57395;SDS011;43222;52.912;6.940;2022-07-30T03:16:15;8.95;;;8.05;;
57395;SDS011;43222;52.912;6.940;2022-07-30T03:18:42;13.95;;;9.20;;
57395;SDS011;43222;52.912;6.940;2022-07-30T03:21:09;25.88;;;11.13;;
57395;SDS011;43222;52.912;6.940;2022-07-30T03:23:36;25.65;;;11.25;;
57395;SDS011;43222;52.912;6.940;2022-07-30T03:26:03;11.25;;;9.90;;
57395;SDS011;43222;52.912;6.940;2022-07-30T03:28:30;10.27;;;8.82;;
57395;SDS011;43222;52.912;6.940;2022-07-30T03:30:57;10.27;;;9.25;;
57395;SDS011;43222;52.912;6.940;2022-07-30T03:33:23;9.35;;;8.35;;
57395;SDS011;43222;52.912;6.940;2022-07-30T03:35:49;8.73;;;7.30;;
57395;SDS011;43222;52.912;6.940;2022-07-30T03:38:17;8.75;;;7.28;;
57395;SDS011;43222;52.912;6.940;2022-07-30T03:40:44;8.90;;;8.00;;
57395;SDS011;43222;52.912;6.940;2022-07-30T03:43:11;8.63;;;7.72;;
57395;SDS011;43222;52.912;6.940;2022-07-30T03:45:39;9.35;;;8.35;;
57395;SDS011;43222;52.912;6.940;2022-07-30T03:48:06;9.20;;;8.10;;
57395;SDS011;43222;52.912;6.940;2022-07-30T03:50:33;10.57;;;8.10;;
57395;SDS011;43222;52.912;6.940;2022-07-30T03:52:59;12.30;;;9.70;;
57395;SDS011;43222;52.912;6.940;2022-07-30T03:55:25;11.90;;;10.70;;
57395;SDS011;43222;52.912;6.940;2022-07-30T03:57:51;12.95;;;11.10;;
57395;SDS011;43222;52.912;6.940;2022-07-30T04:00:17;13.45;;;11.05;;
57395;SDS011;43222;52.912;6.940;2022-07-30T04:02:44;16.23;;;12.23;;
57395;SDS011;43222;52.912;6.940;2022-07-30T04:05:10;14.73;;;11.77;;
57395;SDS011;43222;52.912;6.940;2022-07-30T04:07:37;15.95;;;11.40;;
57395;SDS011;43222;52.912;6.940;2022-07-30T04:10:03;14.27;;;10.93;;
57395;SDS011;43222;52.912;6.940;2022-07-30T04:12:29;19.08;;;12.18;;
57395;SDS011;43222;52.912;6.940;2022-07-30T04:14:55;14.88;;;12.02;;
57395;SDS011;43222;52.912;6.940;2022-07-30T04:17:26;14.40;;;12.25;;
57395;SDS011;43222;52.912;6.940;2022-07-30T04:20:01;16.33;;;12.15;;
57395;SDS011;43222;52.912;6.940;2022-07-30T04:22:31;19.08;;;12.85;;
57395;SDS011;43222;52.912;6.940;2022-07-30T04:25:01;16.48;;;11.32;;
57395;SDS011;43222;52.912;6.940;2022-07-30T04:27:29;14.23;;;10.53;;
57395;SDS011;43222;52.912;6.940;2022-07-30T04:29:55;14.00;;;10.43;;
57395;SDS011;43222;52.912;6.940;2022-07-30T04:32:22;18.50;;;11.57;;
57395;SDS011;43222;52.912;6.940;2022-07-30T04:34:48;13.13;;;10.68;;
57395;SDS011;43222;52.912;6.940;2022-07-30T04:37:19;17.02;;;11.15;;
57395;SDS011;43222;52.912;6.940;2022-07-30T04:39:45;16.90;;;11.80;;
57395;SDS011;43222;52.912;6.940;2022-07-30T04:42:14;16.88;;;11.00;;
57395;SDS011;43222;52.912;6.940;2022-07-30T04:44:40;13.55;;;10.73;;
57395;SDS011;43222;52.912;6.940;2022-07-30T04:47:07;20.13;;;12.20;;
57395;SDS011;43222;52.912;6.940;2022-07-30T04:49:33;16.55;;;11.82;;
57395;SDS011;43222;52.912;6.940;2022-07-30T04:51:59;18.80;;;11.40;;
57395;SDS011;43222;52.912;6.940;2022-07-30T04:54:25;15.32;;;11.90;;
57395;SDS011;43222;52.912;6.940;2022-07-30T04:56:53;15.10;;;12.40;;
57395;SDS011;43222;52.912;6.940;2022-07-30T04:59:20;14.90;;;11.70;;
57395;SDS011;43222;52.912;6.940;2022-07-30T05:01:47;17.25;;;12.32;;
57395;SDS011;43222;52.912;6.940;2022-07-30T05:04:14;21.13;;;13.35;;
57395;SDS011;43222;52.912;6.940;2022-07-30T05:06:41;17.52;;;13.13;;
57395;SDS011;43222;52.912;6.940;2022-07-30T05:09:07;15.32;;;12.70;;
57395;SDS011;43222;52.912;6.940;2022-07-30T05:11:34;20.85;;;13.00;;
57395;SDS011;43222;52.912;6.940;2022-07-30T05:14:00;16.90;;;13.15;;
57395;SDS011;43222;52.912;6.940;2022-07-30T05:16:26;17.08;;;13.60;;
57395;SDS011;43222;52.912;6.940;2022-07-30T05:18:53;18.75;;;13.68;;
57395;SDS011;43222;52.912;6.940;2022-07-30T05:21:19;16.58;;;13.23;;
57395;SDS011;43222;52.912;6.940;2022-07-30T05:23:45;21.27;;;14.02;;
57395;SDS011;43222;52.912;6.940;2022-07-30T05:26:11;17.50;;;12.98;;
57395;SDS011;43222;52.912;6.940;2022-07-30T05:28:37;17.45;;;13.27;;
57395;SDS011;43222;52.912;6.940;2022-07-30T05:31:03;15.50;;;13.45;;
57395;SDS011;43222;52.912;6.940;2022-07-30T05:33:29;22.08;;;14.82;;
57395;SDS011;43222;52.912;6.940;2022-07-30T05:35:55;23.85;;;15.60;;
57395;SDS011;43222;52.912;6.940;2022-07-30T05:38:24;21.88;;;15.52;;
57395;SDS011;43222;52.912;6.940;2022-07-30T05:40:50;17.35;;;15.05;;
57395;SDS011;43222;52.912;6.940;2022-07-30T05:43:16;19.23;;;14.15;;
57395;SDS011;43222;52.912;6.940;2022-07-30T05:45:42;16.63;;;13.40;;
57395;SDS011;43222;52.912;6.940;2022-07-30T05:48:08;17.10;;;12.25;;
57395;SDS011;43222;52.912;6.940;2022-07-30T05:50:34;13.65;;;11.43;;
57395;SDS011;43222;52.912;6.940;2022-07-30T05:53:00;13.93;;;11.13;;
57395;SDS011;43222;52.912;6.940;2022-07-30T05:55:26;15.55;;;10.73;;
57395;SDS011;43222;52.912;6.940;2022-07-30T05:57:52;15.00;;;10.65;;
57395;SDS011;43222;52.912;6.940;2022-07-30T06:00:18;12.82;;;10.23;;
57395;SDS011;43222;52.912;6.940;2022-07-30T06:02:44;17.30;;;10.02;;
57395;SDS011;43222;52.912;6.940;2022-07-30T06:05:10;12.95;;;10.18;;
57395;SDS011;43222;52.912;6.940;2022-07-30T06:07:36;11.52;;;9.65;;
57395;SDS011;43222;52.912;6.940;2022-07-30T06:10:02;12.50;;;10.20;;
57395;SDS011;43222;52.912;6.940;2022-07-30T06:12:29;12.52;;;9.55;;
57395;SDS011;43222;52.912;6.940;2022-07-30T06:14:55;13.15;;;10.07;;
57395;SDS011;43222;52.912;6.940;2022-07-30T06:17:21;11.52;;;9.05;;
57395;SDS011;43222;52.912;6.940;2022-07-30T06:19:47;14.77;;;9.10;;
57395;SDS011;43222;52.912;6.940;2022-07-30T06:22:14;12.23;;;8.75;;
57395;SDS011;43222;52.912;6.940;2022-07-30T06:24:41;11.85;;;7.85;;
57395;SDS011;43222;52.912;6.940;2022-07-30T06:27:07;12.45;;;8.15;;
57395;SDS011;43222;52.912;6.940;2022-07-30T06:29:33;14.20;;;8.15;;
57395;SDS011;43222;52.912;6.940;2022-07-30T06:32:00;11.88;;;8.23;;
57395;SDS011;43222;52.912;6.940;2022-07-30T06:34:26;10.00;;;8.10;;
57395;SDS011;43222;52.912;6.940;2022-07-30T06:36:52;9.48;;;7.85;;
57395;SDS011;43222;52.912;6.940;2022-07-30T06:39:18;11.18;;;7.57;;
57395;SDS011;43222;52.912;6.940;2022-07-30T06:41:44;10.02;;;7.50;;
57395;SDS011;43222;52.912;6.940;2022-07-30T06:44:10;11.38;;;7.50;;
57395;SDS011;43222;52.912;6.940;2022-07-30T06:46:36;9.55;;;7.40;;
57395;SDS011;43222;52.912;6.940;2022-07-30T06:49:02;13.15;;;7.07;;
57395;SDS011;43222;52.912;6.940;2022-07-30T06:51:28;14.90;;;6.78;;
57395;SDS011;43222;52.912;6.940;2022-07-30T06:53:54;10.20;;;7.00;;
57395;SDS011;43222;52.912;6.940;2022-07-30T06:56:20;10.00;;;6.82;;
57395;SDS011;43222;52.912;6.940;2022-07-30T06:58:46;9.18;;;6.72;;
57395;SDS011;43222;52.912;6.940;2022-07-30T07:01:13;9.57;;;6.22;;
57395;SDS011;43222;52.912;6.940;2022-07-30T07:03:39;10.45;;;6.50;;
57395;SDS011;43222;52.912;6.940;2022-07-30T07:06:05;13.07;;;6.97;;
57395;SDS011;43222;52.912;6.940;2022-07-30T07:08:31;11.75;;;6.03;;
57395;SDS011;43222;52.912;6.940;2022-07-30T07:10:57;9.75;;;6.00;;
57395;SDS011;43222;52.912;6.940;2022-07-30T07:13:23;9.18;;;5.80;;
57395;SDS011;43222;52.912;6.940;2022-07-30T07:15:49;8.55;;;5.88;;
57395;SDS011;43222;52.912;6.940;2022-07-30T07:18:15;12.32;;;6.18;;
57395;SDS011;43222;52.912;6.940;2022-07-30T07:20:41;10.35;;;5.43;;
57395;SDS011;43222;52.912;6.940;2022-07-30T07:23:10;8.88;;;5.30;;
57395;SDS011;43222;52.912;6.940;2022-07-30T07:25:36;8.38;;;5.32;;
57395;SDS011;43222;52.912;6.940;2022-07-30T07:28:02;8.82;;;4.90;;
57395;SDS011;43222;52.912;6.940;2022-07-30T07:30:28;9.35;;;5.25;;
57395;SDS011;43222;52.912;6.940;2022-07-30T07:32:54;9.85;;;5.80;;
57395;SDS011;43222;52.912;6.940;2022-07-30T07:35:20;9.45;;;5.68;;
57395;SDS011;43222;52.912;6.940;2022-07-30T07:37:47;8.07;;;5.30;;
57395;SDS011;43222;52.912;6.940;2022-07-30T07:40:13;12.48;;;5.65;;
57395;SDS011;43222;52.912;6.940;2022-07-30T07:42:39;9.43;;;5.30;;
57395;SDS011;43222;52.912;6.940;2022-07-30T07:45:05;9.52;;;6.18;;
57395;SDS011;43222;52.912;6.940;2022-07-30T07:47:41;10.15;;;5.72;;
57395;SDS011;43222;52.912;6.940;2022-07-30T07:50:07;9.13;;;4.63;;
57395;SDS011;43222;52.912;6.940;2022-07-30T07:52:33;7.93;;;4.90;;
57395;SDS011;43222;52.912;6.940;2022-07-30T07:54:59;9.82;;;4.80;;
57395;SDS011;43222;52.912;6.940;2022-07-30T07:57:25;8.75;;;4.95;;
57395;SDS011;43222;52.912;6.940;2022-07-30T07:59:51;9.88;;;5.15;;
57395;SDS011;43222;52.912;6.940;2022-07-30T08:02:19;8.57;;;4.78;;
57395;SDS011;43222;52.912;6.940;2022-07-30T08:04:45;9.70;;;4.68;;
57395;SDS011;43222;52.912;6.940;2022-07-30T08:07:11;10.27;;;5.05;;
57395;SDS011;43222;52.912;6.940;2022-07-30T08:09:37;7.80;;;4.47;;
57395;SDS011;43222;52.912;6.940;2022-07-30T08:12:03;8.90;;;4.50;;
57395;SDS011;43222;52.912;6.940;2022-07-30T08:14:29;8.05;;;5.03;;
57395;SDS011;43222;52.912;6.940;2022-07-30T08:16:55;10.70;;;5.20;;
57395;SDS011;43222;52.912;6.940;2022-07-30T08:19:21;12.30;;;5.45;;
57395;SDS011;43222;52.912;6.940;2022-07-30T08:21:48;12.73;;;6.10;;
57395;SDS011;43222;52.912;6.940;2022-07-30T08:24:14;11.32;;;5.95;;
57395;SDS011;43222;52.912;6.940;2022-07-30T08:26:40;9.10;;;5.65;;
57395;SDS011;43222;52.912;6.940;2022-07-30T08:29:06;12.45;;;6.78;;
57395;SDS011;43222;52.912;6.940;2022-07-30T08:31:32;12.38;;;6.78;;
57395;SDS011;43222;52.912;6.940;2022-07-30T08:33:58;10.80;;;6.43;;
57395;SDS011;43222;52.912;6.940;2022-07-30T08:36:24;14.82;;;6.63;;
57395;SDS011;43222;52.912;6.940;2022-07-30T08:38:50;15.68;;;6.38;;
57395;SDS011;43222;52.912;6.940;2022-07-30T08:41:16;14.57;;;6.88;;
57395;SDS011;43222;52.912;6.940;2022-07-30T08:43:43;12.00;;;5.47;;
57395;SDS011;43222;52.912;6.940;2022-07-30T08:46:11;14.23;;;5.72;;
57395;SDS011;43222;52.912;6.940;2022-07-30T08:48:37;10.30;;;5.88;;
57395;SDS011;43222;52.912;6.940;2022-07-30T08:51:03;12.35;;;5.47;;
57395;SDS011;43222;52.912;6.940;2022-07-30T08:53:30;9.88;;;4.72;;
57395;SDS011;43222;52.912;6.940;2022-07-30T08:55:58;8.55;;;4.57;;
57395;SDS011;43222;52.912;6.940;2022-07-30T08:58:28;8.23;;;5.30;;
57395;SDS011;43222;52.912;6.940;2022-07-30T09:00:54;8.80;;;4.80;;
57395;SDS011;43222;52.912;6.940;2022-07-30T09:03:20;7.28;;;4.32;;
57395;SDS011;43222;52.912;6.940;2022-07-30T09:05:46;7.47;;;4.05;;
57395;SDS011;43222;52.912;6.940;2022-07-30T09:08:12;9.55;;;4.22;;
57395;SDS011;43222;52.912;6.940;2022-07-30T09:10:39;13.55;;;4.72;;
57395;SDS011;43222;52.912;6.940;2022-07-30T09:13:21;11.73;;;4.78;;
57395;SDS011;43222;52.912;6.940;2022-07-30T09:15:47;9.85;;;4.80;;
57395;SDS011;43222;52.912;6.940;2022-07-30T09:18:13;10.20;;;4.57;;
57395;SDS011;43222;52.912;6.940;2022-07-30T09:20:50;10.48;;;3.85;;
57395;SDS011;43222;52.912;6.940;2022-07-30T09:23:16;12.85;;;4.97;;
57395;SDS011;43222;52.912;6.940;2022-07-30T09:25:43;7.75;;;3.85;;
57395;SDS011;43222;52.912;6.940;2022-07-30T09:28:10;9.60;;;4.13;;
57395;SDS011;43222;52.912;6.940;2022-07-30T09:30:43;8.20;;;3.80;;
57395;SDS011;43222;52.912;6.940;2022-07-30T09:33:10;9.82;;;3.80;;
57395;SDS011;43222;52.912;6.940;2022-07-30T09:35:36;11.98;;;4.70;;
57395;SDS011;43222;52.912;6.940;2022-07-30T09:38:02;9.77;;;3.78;;
57395;SDS011;43222;52.912;6.940;2022-07-30T09:40:29;8.43;;;3.90;;
57395;SDS011;43222;52.912;6.940;2022-07-30T09:43:02;9.65;;;4.25;;
57395;SDS011;43222;52.912;6.940;2022-07-30T09:45:28;9.98;;;3.63;;
57395;SDS011;43222;52.912;6.940;2022-07-30T09:47:54;9.85;;;3.92;;
57395;SDS011;43222;52.912;6.940;2022-07-30T09:50:21;14.85;;;4.38;;
57395;SDS011;43222;52.912;6.940;2022-07-30T09:52:48;9.45;;;4.20;;
57395;SDS011;43222;52.912;6.940;2022-07-30T09:55:27;11.70;;;3.47;;
57395;SDS011;43222;52.912;6.940;2022-07-30T09:57:55;8.65;;;3.38;;
57395;SDS011;43222;52.912;6.940;2022-07-30T10:00:22;7.53;;;2.97;;
57395;SDS011;43222;52.912;6.940;2022-07-30T10:02:48;9.73;;;3.35;;
57395;SDS011;43222;52.912;6.940;2022-07-30T10:05:16;8.63;;;3.38;;
57395;SDS011;43222;52.912;6.940;2022-07-30T10:07:47;10.18;;;3.00;;
57395;SDS011;43222;52.912;6.940;2022-07-30T10:12:40;11.68;;;2.80;;
57395;SDS011;43222;52.912;6.940;2022-07-30T10:15:06;10.63;;;3.05;;
57395;SDS011;43222;52.912;6.940;2022-07-30T10:17:33;9.30;;;2.78;;
57395;SDS011;43222;52.912;6.940;2022-07-30T10:20:03;9.50;;;2.80;;
57395;SDS011;43222;52.912;6.940;2022-07-30T10:22:29;9.80;;;3.17;;
57395;SDS011;43222;52.912;6.940;2022-07-30T10:24:55;9.48;;;3.28;;
57395;SDS011;43222;52.912;6.940;2022-07-30T10:27:21;10.02;;;2.53;;
57395;SDS011;43222;52.912;6.940;2022-07-30T10:29:48;8.65;;;2.83;;
57395;SDS011;43222;52.912;6.940;2022-07-30T10:32:14;11.32;;;2.90;;
57395;SDS011;43222;52.912;6.940;2022-07-30T10:34:40;9.82;;;2.72;;
57395;SDS011;43222;52.912;6.940;2022-07-30T10:37:07;9.38;;;3.03;;
57395;SDS011;43222;52.912;6.940;2022-07-30T10:39:38;9.88;;;2.70;;
57395;SDS011;43222;52.912;6.940;2022-07-30T10:42:28;9.30;;;3.17;;
57395;SDS011;43222;52.912;6.940;2022-07-30T10:47:33;8.50;;;2.65;;
57395;SDS011;43222;52.912;6.940;2022-07-30T10:50:15;9.57;;;2.92;;
57395;SDS011;43222;52.912;6.940;2022-07-30T10:55:11;7.88;;;2.45;;
57395;SDS011;43222;52.912;6.940;2022-07-30T10:57:55;8.05;;;2.53;;
57395;SDS011;43222;52.912;6.940;2022-07-30T11:00:21;8.75;;;2.55;;
57395;SDS011;43222;52.912;6.940;2022-07-30T11:05:32;8.88;;;2.50;;
57395;SDS011;43222;52.912;6.940;2022-07-30T11:08:26;11.48;;;3.13;;
57395;SDS011;43222;52.912;6.940;2022-07-30T11:10:44;10.15;;;3.05;;
57395;SDS011;43222;52.912;6.940;2022-07-30T11:13:10;9.35;;;2.67;;
57395;SDS011;43222;52.912;6.940;2022-07-30T11:15:55;8.05;;;2.47;;
57395;SDS011;43222;52.912;6.940;2022-07-30T11:18:23;9.18;;;2.35;;
57395;SDS011;43222;52.912;6.940;2022-07-30T11:23:37;9.18;;;2.50;;
57395;SDS011;43222;52.912;6.940;2022-07-30T11:26:04;10.27;;;2.55;;
57395;SDS011;43222;52.912;6.940;2022-07-30T11:28:41;9.43;;;2.50;;
57395;SDS011;43222;52.912;6.940;2022-07-30T11:31:23;6.57;;;2.40;;
57395;SDS011;43222;52.912;6.940;2022-07-30T11:33:50;5.25;;;2.10;;
57395;SDS011;43222;52.912;6.940;2022-07-30T11:36:16;7.40;;;2.33;;
57395;SDS011;43222;52.912;6.940;2022-07-30T11:38:50;7.20;;;2.30;;
57395;SDS011;43222;52.912;6.940;2022-07-30T11:41:16;9.77;;;2.40;;
57395;SDS011;43222;52.912;6.940;2022-07-30T11:43:42;9.45;;;2.08;;
57395;SDS011;43222;52.912;6.940;2022-07-30T11:46:12;8.65;;;2.00;;
57395;SDS011;43222;52.912;6.940;2022-07-30T11:48:39;7.67;;;2.23;;
57395;SDS011;43222;52.912;6.940;2022-07-30T11:51:06;12.85;;;2.15;;
57395;SDS011;43222;52.912;6.940;2022-07-30T11:53:33;8.68;;;2.22;;
57395;SDS011;43222;52.912;6.940;2022-07-30T11:55:59;10.95;;;2.67;;
57395;SDS011;43222;52.912;6.940;2022-07-30T11:58:30;6.55;;;2.10;;
57395;SDS011;43222;52.912;6.940;2022-07-30T12:00:57;6.88;;;2.10;;
57395;SDS011;43222;52.912;6.940;2022-07-30T12:03:25;7.25;;;1.98;;
57395;SDS011;43222;52.912;6.940;2022-07-30T12:05:52;5.20;;;1.67;;
57395;SDS011;43222;52.912;6.940;2022-07-30T12:08:19;7.22;;;2.22;;
57395;SDS011;43222;52.912;6.940;2022-07-30T12:10:56;6.18;;;1.90;;
57395;SDS011;43222;52.912;6.940;2022-07-30T12:13:22;9.63;;;1.98;;
57395;SDS011;43222;52.912;6.940;2022-07-30T12:15:48;6.05;;;1.55;;
57395;SDS011;43222;52.912;6.940;2022-07-30T12:18:32;6.45;;;1.70;;
57395;SDS011;43222;52.912;6.940;2022-07-30T12:20:59;8.48;;;2.38;;
57395;SDS011;43222;52.912;6.940;2022-07-30T12:23:26;6.20;;;1.67;;
57395;SDS011;43222;52.912;6.940;2022-07-30T12:25:52;7.80;;;1.88;;
57395;SDS011;43222;52.912;6.940;2022-07-30T12:28:22;6.72;;;1.70;;
57395;SDS011;43222;52.912;6.940;2022-07-30T12:30:50;6.68;;;1.63;;
57395;SDS011;43222;52.912;6.940;2022-07-30T12:33:16;12.48;;;2.10;;
57395;SDS011;43222;52.912;6.940;2022-07-30T12:35:46;7.13;;;1.90;;
57395;SDS011;43222;52.912;6.940;2022-07-30T12:38:13;6.00;;;1.60;;
57395;SDS011;43222;52.912;6.940;2022-07-30T12:40:52;7.03;;;1.75;;
57395;SDS011;43222;52.912;6.940;2022-07-30T12:46:03;7.28;;;1.88;;
57395;SDS011;43222;52.912;6.940;2022-07-30T12:48:29;8.73;;;1.88;;
57395;SDS011;43222;52.912;6.940;2022-07-30T12:51:05;6.18;;;1.65;;
57395;SDS011;43222;52.912;6.940;2022-07-30T12:53:31;5.75;;;1.77;;
57395;SDS011;43222;52.912;6.940;2022-07-30T12:56:10;9.73;;;2.20;;
57395;SDS011;43222;52.912;6.940;2022-07-30T12:58:37;5.03;;;1.50;;
57395;SDS011;43222;52.912;6.940;2022-07-30T13:01:03;8.95;;;1.95;;
57395;SDS011;43222;52.912;6.940;2022-07-30T13:03:30;7.53;;;1.60;;
57395;SDS011;43222;52.912;6.940;2022-07-30T13:11:09;6.95;;;1.70;;
57395;SDS011;43222;52.912;6.940;2022-07-30T13:13:36;11.82;;;1.77;;
57395;SDS011;43222;52.912;6.940;2022-07-30T13:16:03;7.53;;;1.85;;
57395;SDS011;43222;52.912;6.940;2022-07-30T13:18:30;6.50;;;1.60;;
57395;SDS011;43222;52.912;6.940;2022-07-30T13:20:57;5.50;;;1.75;;
57395;SDS011;43222;52.912;6.940;2022-07-30T13:23:23;11.70;;;1.73;;
57395;SDS011;43222;52.912;6.940;2022-07-30T13:25:50;8.85;;;1.98;;
57395;SDS011;43222;52.912;6.940;2022-07-30T13:28:16;9.95;;;2.00;;
57395;SDS011;43222;52.912;6.940;2022-07-30T13:30:42;7.22;;;1.73;;
57395;SDS011;43222;52.912;6.940;2022-07-30T13:33:09;10.63;;;2.10;;
57395;SDS011;43222;52.912;6.940;2022-07-30T13:35:35;8.68;;;1.90;;
57395;SDS011;43222;52.912;6.940;2022-07-30T13:38:01;5.53;;;1.60;;
57395;SDS011;43222;52.912;6.940;2022-07-30T13:40:27;5.45;;;1.63;;
57395;SDS011;43222;52.912;6.940;2022-07-30T13:42:56;6.38;;;1.60;;
57395;SDS011;43222;52.912;6.940;2022-07-30T13:45:22;4.55;;;1.50;;
57395;SDS011;43222;52.912;6.940;2022-07-30T13:47:48;5.68;;;1.60;;
57395;SDS011;43222;52.912;6.940;2022-07-30T13:50:14;6.75;;;1.70;;
57395;SDS011;43222;52.912;6.940;2022-07-30T13:52:40;5.47;;;1.80;;
57395;SDS011;43222;52.912;6.940;2022-07-30T13:55:06;5.82;;;1.58;;
57395;SDS011;43222;52.912;6.940;2022-07-30T13:57:32;12.60;;;1.92;;
57395;SDS011;43222;52.912;6.940;2022-07-30T13:59:58;6.57;;;1.70;;
57395;SDS011;43222;52.912;6.940;2022-07-30T14:02:24;4.88;;;1.73;;
57395;SDS011;43222;52.912;6.940;2022-07-30T14:04:50;7.80;;;1.77;;
57395;SDS011;43222;52.912;6.940;2022-07-30T14:07:16;5.20;;;1.50;;
57395;SDS011;43222;52.912;6.940;2022-07-30T14:09:42;5.30;;;1.65;;
57395;SDS011;43222;52.912;6.940;2022-07-30T14:12:08;6.75;;;1.55;;
57395;SDS011;43222;52.912;6.940;2022-07-30T14:14:34;6.15;;;1.73;;
57395;SDS011;43222;52.912;6.940;2022-07-30T14:17:00;5.80;;;1.52;;
57395;SDS011;43222;52.912;6.940;2022-07-30T14:19:26;8.75;;;1.60;;
57395;SDS011;43222;52.912;6.940;2022-07-30T14:21:52;4.40;;;1.33;;
57395;SDS011;43222;52.912;6.940;2022-07-30T14:24:19;12.57;;;1.60;;
57395;SDS011;43222;52.912;6.940;2022-07-30T14:26:45;6.32;;;1.52;;
57395;SDS011;43222;52.912;6.940;2022-07-30T14:29:12;7.88;;;1.60;;
57395;SDS011;43222;52.912;6.940;2022-07-30T14:31:38;4.95;;;1.35;;
57395;SDS011;43222;52.912;6.940;2022-07-30T14:34:04;5.72;;;1.60;;
57395;SDS011;43222;52.912;6.940;2022-07-30T14:36:31;7.55;;;1.60;;
57395;SDS011;43222;52.912;6.940;2022-07-30T14:38:57;9.13;;;1.83;;
57395;SDS011;43222;52.912;6.940;2022-07-30T14:41:23;5.65;;;1.55;;
57395;SDS011;43222;52.912;6.940;2022-07-30T14:43:49;4.55;;;1.30;;
57395;SDS011;43222;52.912;6.940;2022-07-30T14:46:15;6.95;;;2.35;;
57395;SDS011;43222;52.912;6.940;2022-07-30T14:48:41;12.60;;;2.50;;
57395;SDS011;43222;52.912;6.940;2022-07-30T14:51:08;8.00;;;1.90;;
57395;SDS011;43222;52.912;6.940;2022-07-30T14:53:34;7.13;;;2.33;;
57395;SDS011;43222;52.912;6.940;2022-07-30T14:56:00;11.35;;;3.22;;
57395;SDS011;43222;52.912;6.940;2022-07-30T14:58:26;9.68;;;1.85;;
57395;SDS011;43222;52.912;6.940;2022-07-30T15:00:52;11.07;;;1.50;;
57395;SDS011;43222;52.912;6.940;2022-07-30T15:03:18;7.65;;;1.80;;
57395;SDS011;43222;52.912;6.940;2022-07-30T15:05:44;6.57;;;1.67;;
57395;SDS011;43222;52.912;6.940;2022-07-30T15:08:10;7.70;;;1.88;;